Ana Sayfa
METAR-TAF:

METAR-TAF

Havaalanları :

Taşkent Uluslararası Havalimanı

Taşkent, Özbekistan

Enlem: 41-16N, Boylam: 069-16E, yükseklik: 489 m

Güncel hava durumu gözlemi

Rapor saat 21:00 UTC de 41 dakika önce yapıldı.
Rüzgar doğudan 4 kt
Sıcaklık 28°C
Nem 42%
Basınç 999 hPa
Görüş mesafesi 10 km veya daha fazla
1500 m altında bulut yok ve kümülonimbus yok

METAR: UTTT 222100Z 08004KT CAVOK 28/14 Q0999 R08R/CLRD70 NOSIG

Saat: 02:41 (21:41 UTC)

Tahmin

Rapor saat 17:00 UTC de 4 saat ve 41 dakika önce yapıldı.
Ayın 22'si saat 18 UTC'den ayın 23'si saat 18 UTC'ye kadar geçerli Tahmin
Rüzgar doğudan 10 kt
Görüş mesafesi 10 km veya daha fazla
1500 m altında bulut yok ve kümülonimbus yok
Geçici
ayın 23'si saat 09 UTC'den ayın 23'si saat 19 UTC'ye kadar
Rüzgar batıdan 15 kt ve 25 kt'a kadar ani rüzgarlar
6000 ft yükseklikte az bulutlu, Kümülonimbus.

TAF: UTTT 221700Z 2218/2318 08010KT CAVOK TX42/2310Z TEMPO 2309/2319 26015G25KT FEW060CB

4.000'den fazla havaalanı için hava durumu gözlemleri ve tahminleri (METAR ve TAF raporları).

Kullanılabilir istasyonlar harita üzerinde sarı ve kırmızı noktalarla gösterilir.

İstasyonun adını görmek için fareyi noktanın üzerinde gezdirin.

Sonrasında hava gözlem ve tahminlerini görmek için tıklayın.

Haritayı değiştirmek için: yaklaştırmak için siyah artı işaretli yeşil düğmeye ve uzaklaştırmak için de eksi işaretli düğmeye hızla tıklayın; bitişik haritalar için yeşil okları kullanın.


METAR-TAF: